Starview, Pennsylvania
Current Conditions -  °F | °C
As of 11:56 AM on Friday 21 Nov 2014 (Local Time) from KMDT Reporting Station
Scattered Clouds Scattered Clouds  
Wind Chill: 22°   Ceiling: Unl
Heat Index: 33°   Visibility: 10mi
Dew Point: 10°   Wind: 17mph
Humidity: 38%   Direction: 300°WNW
Pressure: 30.39"   Gusts: NA
Location:  40.0548°N, 76.6874°W
Report Text: KMDT 211656Z 30015KT 10SM SCT055 01/M12 A3039 RMK AO2 SLP296 T00061122
Loading
Personal Weather Stations






























Interactive Weather Map New forecast layout! Learn more

10-Day Weather Forecast

Advertisements
Track Severe Weather on mobile